createdAt,value
2023-02-01T00:00:33.060Z,88615.84
2023-02-01T00:03:00.252Z,88612.00
2023-02-01T00:05:27.144Z,88619.53
2023-02-01T00:07:54.001Z,88619.34
2023-02-01T00:10:21.212Z,88619.75
2023-02-01T00:12:48.253Z,88619.75
2023-02-01T00:15:15.278Z,88617.59
2023-02-01T00:17:42.156Z,88615.41
2023-02-01T00:20:09.888Z,88608.31
2023-02-01T00:22:36.905Z,88614.38
2023-02-01T00:25:03.989Z,88614.19
2023-02-01T00:27:30.856Z,88609.06
2023-02-01T00:29:57.634Z,88606.56
2023-02-01T00:32:24.575Z,88606.78
2023-02-01T00:34:51.636Z,88610.09
2023-02-01T00:37:18.487Z,88604.88
2023-02-01T00:39:45.271Z,88610.31
2023-02-01T00:42:12.176Z,88607.91
2023-02-01T00:44:39.034Z,88609.06
2023-02-01T00:47:05.966Z,88605.09
2023-02-01T00:49:32.851Z,88619.50
2023-02-01T00:51:59.651Z,88619.59
2023-02-01T00:54:26.522Z,88604.34
2023-02-01T00:56:53.355Z,88605.59
2023-02-01T00:59:20.280Z,88608.72
2023-02-01T01:01:47.175Z,88600.50
2023-02-01T01:04:14.069Z,88609.78
2023-02-01T01:06:41.008Z,88610.81
2023-02-01T01:09:09.278Z,88620.09
2023-02-01T01:11:39.016Z,88615.06
2023-02-01T01:14:08.239Z,88606.94
2023-02-01T01:16:38.704Z,88618.75
2023-02-01T01:19:05.679Z,88608.69
2023-02-01T01:21:32.738Z,88608.09
2023-02-01T01:23:59.683Z,88607.97
2023-02-01T01:26:28.266Z,88608.06
2023-02-01T01:29:00.354Z,88616.41
2023-02-01T01:31:28.626Z,88605.16
2023-02-01T01:33:58.453Z,88607.53
2023-02-01T01:36:26.572Z,88597.09
2023-02-01T01:38:53.818Z,88600.25
2023-02-01T01:41:27.318Z,88605.25
2023-02-01T01:44:27.423Z,88607.03
2023-02-01T01:46:54.381Z,88605.66
2023-02-01T01:49:25.160Z,88620.69
2023-02-01T01:52:03.738Z,88606.38
2023-02-01T01:54:42.218Z,88614.63
2023-02-01T01:57:18.577Z,88612.75
2023-02-01T01:59:51.410Z,88620.13
2023-02-01T02:02:18.788Z,88621.19
2023-02-01T02:04:47.302Z,88615.56
2023-02-01T02:07:21.569Z,88625.06
2023-02-01T02:10:00.161Z,88625.47
2023-02-01T02:12:27.772Z,88631.13
2023-02-01T02:14:55.028Z,88630.59
2023-02-01T02:17:32.648Z,88632.81
2023-02-01T02:20:31.604Z,88635.50
2023-02-01T02:23:39.467Z,88630.28
2023-02-01T02:26:18.172Z,88624.44
2023-02-01T02:28:53.769Z,88635.06
2023-02-01T02:31:39.195Z,88636.50
2023-02-01T02:34:30.664Z,88625.34
2023-02-01T02:37:09.318Z,88622.50
2023-02-01T02:40:04.062Z,88640.22
2023-02-01T02:42:46.677Z,88631.88
2023-02-01T02:45:39.322Z,88631.81
2023-02-01T02:48:25.037Z,88641.34
2023-02-01T02:51:09.056Z,88633.53
2023-02-01T02:54:00.822Z,88632.56
2023-02-01T02:56:29.335Z,88635.00
2023-02-01T02:58:56.948Z,88636.38
2023-02-01T03:01:24.014Z,88637.25
2023-02-01T03:03:51.447Z,88636.44
2023-02-01T03:06:19.226Z,88639.13
2023-02-01T03:08:46.268Z,88640.59
2023-02-01T03:11:16.600Z,88642.47
2023-02-01T03:13:46.058Z,88646.53
2023-02-01T03:16:27.470Z,88644.03
2023-02-01T03:19:25.190Z,88648.41
2023-02-01T03:21:57.702Z,88649.69
2023-02-01T03:24:33.674Z,88637.88
2023-02-01T03:27:15.878Z,88651.59
2023-02-01T03:29:55.680Z,88647.84
2023-02-01T03:32:23.114Z,88646.88
2023-02-01T03:34:51.493Z,88647.13
2023-02-01T03:37:26.279Z,88643.91
2023-02-01T03:40:06.063Z,88657.84
2023-02-01T03:42:38.423Z,88657.25
2023-02-01T03:45:12.768Z,88644.22
2023-02-01T03:47:44.906Z,88653.25
2023-02-01T03:50:18.899Z,88654.91
2023-02-01T03:52:52.045Z,88661.31
2023-02-01T03:55:21.350Z,88665.78
2023-02-01T03:57:56.313Z,88671.00
2023-02-01T04:00:26.490Z,88678.34
2023-02-01T04:02:54.508Z,88673.56
2023-02-01T04:05:22.538Z,88672.41
2023-02-01T04:07:49.626Z,88683.47
2023-02-01T04:10:19.547Z,88691.06
2023-02-01T04:12:46.680Z,88687.31
2023-02-01T04:15:13.631Z,88696.91
2023-02-01T04:17:40.537Z,88693.16
2023-02-01T04:20:07.759Z,88693.66
2023-02-01T04:22:34.583Z,88697.06
2023-02-01T04:25:01.620Z,88703.81
2023-02-01T04:27:28.480Z,88708.53
2023-02-01T04:29:58.158Z,88707.47
2023-02-01T04:32:25.357Z,88704.28
2023-02-01T04:34:52.401Z,88708.72
2023-02-01T04:37:19.214Z,88713.97
2023-02-01T04:39:46.202Z,88719.84
2023-02-01T04:42:13.158Z,88721.63
2023-02-01T04:44:40.080Z,88716.75
2023-02-01T04:47:06.903Z,88711.53
2023-02-01T04:49:33.787Z,88718.47
2023-02-01T04:52:00.798Z,88716.03
2023-02-01T04:54:27.590Z,88723.25
2023-02-01T04:56:54.508Z,88727.91
2023-02-01T04:59:21.551Z,88729.59
2023-02-01T05:01:49.042Z,88728.28
2023-02-01T05:04:16.096Z,88723.97
2023-02-01T05:06:43.016Z,88727.38
2023-02-01T05:09:10.010Z,88727.38
2023-02-01T05:11:37.015Z,88732.41
2023-02-01T05:14:03.898Z,88728.91
2023-02-01T05:16:30.686Z,88734.75
2023-02-01T05:18:57.551Z,88744.78
2023-02-01T05:21:24.656Z,88741.56
2023-02-01T05:23:51.556Z,88746.16
2023-02-01T05:26:18.397Z,88741.09
2023-02-01T05:28:45.343Z,88742.53
2023-02-01T05:31:12.728Z,88747.94
2023-02-01T05:33:39.697Z,88745.06
2023-02-01T05:36:07.009Z,88746.75
2023-02-01T05:38:34.080Z,88751.16
2023-02-01T05:41:01.027Z,88751.56
2023-02-01T05:43:27.919Z,88749.59
2023-02-01T05:45:54.845Z,88760.78
2023-02-01T05:48:21.681Z,88764.13
2023-02-01T05:50:48.624Z,88759.13
2023-02-01T05:53:15.629Z,88762.31
2023-02-01T05:55:43.615Z,88760.88
2023-02-01T05:58:10.411Z,88775.50
2023-02-01T06:00:37.693Z,88781.91
2023-02-01T06:03:04.532Z,88772.75
2023-02-01T06:05:31.577Z,88775.66
2023-02-01T06:07:58.616Z,88778.41
2023-02-01T06:10:26.055Z,88786.22
2023-02-01T06:12:53.087Z,88786.41
2023-02-01T06:15:19.935Z,88790.59
2023-02-01T06:17:47.204Z,88787.38
2023-02-01T06:20:15.840Z,88795.34
2023-02-01T06:22:43.048Z,88794.72
2023-02-01T06:25:11.176Z,88797.66
2023-02-01T06:27:38.351Z,88794.25
2023-02-01T06:30:07.061Z,88798.41
2023-02-01T06:32:33.968Z,88807.31
2023-02-01T06:35:00.846Z,88801.59
2023-02-01T06:37:27.780Z,88801.25
2023-02-01T06:39:54.678Z,88811.06
2023-02-01T06:42:21.854Z,88811.91
2023-02-01T06:44:48.825Z,88818.31
2023-02-01T06:47:15.695Z,88817.38
2023-02-01T06:49:42.557Z,88811.19
2023-02-01T06:52:09.377Z,88815.19
2023-02-01T06:54:36.354Z,88827.72
2023-02-01T06:57:03.387Z,88825.72
2023-02-01T06:59:31.296Z,88825.44
2023-02-01T07:01:58.232Z,88828.69
2023-02-01T07:04:25.088Z,88825.78
2023-02-01T07:06:51.979Z,88827.34
2023-02-01T07:09:18.969Z,88831.94
2023-02-01T07:11:45.812Z,88831.09
2023-02-01T07:14:13.193Z,88837.75
2023-02-01T07:16:40.408Z,88837.00
2023-02-01T07:19:07.357Z,88842.84
2023-02-01T07:21:34.453Z,88849.09
2023-02-01T07:24:01.314Z,88850.75
2023-02-01T07:26:28.350Z,88849.00
2023-02-01T07:28:55.207Z,88855.06
2023-02-01T07:31:22.115Z,88858.25
2023-02-01T07:33:50.300Z,88851.38
2023-02-01T07:36:18.262Z,88853.81
2023-02-01T07:38:46.197Z,88847.34
2023-02-01T07:41:13.145Z,88846.91
2023-02-01T07:43:39.989Z,88849.50
2023-02-01T07:46:07.921Z,88851.03
2023-02-01T07:48:35.046Z,88852.56
2023-02-01T07:51:07.367Z,88849.81
2023-02-01T07:53:36.243Z,88854.59
2023-02-01T07:56:04.244Z,88857.69
2023-02-01T07:58:31.691Z,88865.75
2023-02-01T08:00:58.538Z,88862.97
2023-02-01T08:03:25.537Z,88868.69
2023-02-01T08:05:56.891Z,88865.31
2023-02-01T08:08:24.369Z,88863.84
2023-02-01T08:10:51.336Z,88865.75
2023-02-01T08:13:18.365Z,88869.97
2023-02-01T08:15:45.233Z,88874.34
2023-02-01T08:18:12.074Z,88869.69
2023-02-01T08:20:38.976Z,88872.31
2023-02-01T08:23:09.335Z,88874.34
2023-02-01T08:25:36.267Z,88877.06
2023-02-01T08:28:03.924Z,88881.56
2023-02-01T08:30:30.885Z,88880.28
2023-02-01T08:32:58.348Z,88881.63
2023-02-01T08:35:37.864Z,88882.81
2023-02-01T08:38:09.546Z,88885.06
2023-02-01T08:40:36.498Z,88886.38
2023-02-01T08:43:03.557Z,88883.16
2023-02-01T08:45:30.837Z,88884.91
2023-02-01T08:47:58.382Z,88887.53
2023-02-01T08:50:26.314Z,88893.69
2023-02-01T08:52:54.482Z,88885.94
2023-02-01T08:55:21.860Z,88879.66
2023-02-01T08:57:49.276Z,88879.94
2023-02-01T09:00:18.520Z,88882.56
2023-02-01T09:02:46.061Z,88881.38
2023-02-01T09:05:13.567Z,88876.72
2023-02-01T09:07:42.931Z,88881.72
2023-02-01T09:10:10.493Z,88886.38
2023-02-01T09:12:42.753Z,88884.03
2023-02-01T09:15:10.005Z,88880.09
2023-02-01T09:17:37.789Z,88872.63
2023-02-01T09:20:05.524Z,88873.66
2023-02-01T09:22:32.473Z,88868.84
2023-02-01T09:24:59.847Z,88861.53
2023-02-01T09:27:26.996Z,88868.28
2023-02-01T09:29:54.037Z,88871.16
2023-02-01T09:32:22.810Z,88861.63
2023-02-01T09:34:51.214Z,88867.06
2023-02-01T09:37:18.367Z,88858.31
2023-02-01T09:39:45.217Z,88860.22
2023-02-01T09:42:42.420Z,88854.50
2023-02-01T09:45:30.441Z,88858.47
2023-02-01T09:48:03.857Z,88862.56
2023-02-01T09:50:40.992Z,88863.13
2023-02-01T09:53:35.751Z,88855.41
2023-02-01T09:56:15.511Z,88854.75
2023-02-01T09:58:45.925Z,88848.09
2023-02-01T10:01:22.458Z,88852.38
2023-02-01T10:03:50.414Z,88843.72
2023-02-01T10:06:37.918Z,88852.28
2023-02-01T10:09:30.802Z,88844.53
2023-02-01T10:12:34.675Z,88844.22
2023-02-01T10:15:24.160Z,88846.19
2023-02-01T10:17:53.962Z,88835.47
2023-02-01T10:20:42.653Z,88841.63
2023-02-01T10:23:33.814Z,88840.28
2023-02-01T10:26:01.305Z,88838.13
2023-02-01T10:28:35.930Z,88835.34
2023-02-01T10:31:03.523Z,88836.34
2023-02-01T10:33:35.137Z,88829.88
2023-02-01T10:36:16.916Z,88825.06
2023-02-01T10:38:44.781Z,88827.72
2023-02-01T10:41:21.552Z,88820.66
2023-02-01T10:43:52.775Z,88823.72
2023-02-01T10:46:19.956Z,88821.00
2023-02-01T10:48:48.387Z,88815.69
2023-02-01T10:51:26.059Z,88811.41
2023-02-01T10:54:04.271Z,88816.22
2023-02-01T10:56:31.136Z,88816.53
2023-02-01T10:59:04.215Z,88809.63
2023-02-01T11:01:35.085Z,88808.94
2023-02-01T11:04:08.385Z,88799.59
2023-02-01T11:06:44.602Z,88812.97
2023-02-01T11:09:17.012Z,88809.63
2023-02-01T11:11:49.804Z,88806.56
2023-02-01T11:14:25.610Z,88804.38
2023-02-01T11:16:58.517Z,88806.53
2023-02-01T11:19:25.544Z,88818.81
2023-02-01T11:21:59.037Z,88821.50
2023-02-01T11:24:35.154Z,88813.53
2023-02-01T11:27:06.616Z,88825.25
2023-02-01T11:29:40.161Z,88833.59
2023-02-01T11:32:10.197Z,88833.53
2023-02-01T11:34:42.951Z,88833.16
2023-02-01T11:37:39.713Z,88832.06
2023-02-01T11:40:18.815Z,88833.03
2023-02-01T11:43:15.000Z,88830.84
2023-02-01T11:45:41.995Z,88830.63
2023-02-01T11:48:26.369Z,88831.13
2023-02-01T11:51:12.299Z,88836.03
2023-02-01T11:54:00.637Z,88831.41
2023-02-01T11:56:32.935Z,88838.78
2023-02-01T11:59:12.982Z,88842.44
2023-02-01T12:01:51.800Z,88831.56
2023-02-01T12:04:43.386Z,88834.91
2023-02-01T12:07:23.405Z,88838.28
2023-02-01T12:10:10.831Z,88837.91
2023-02-01T12:12:54.568Z,88838.72
2023-02-01T12:15:36.474Z,88844.56
2023-02-01T12:18:20.741Z,88841.63
2023-02-01T12:21:22.043Z,88845.44
2023-02-01T12:23:51.489Z,88849.97
2023-02-01T12:26:44.229Z,88854.88
2023-02-01T12:29:48.676Z,88856.28
2023-02-01T12:32:27.705Z,88856.09
2023-02-01T12:35:10.541Z,88859.41
2023-02-01T12:38:03.397Z,88868.66
2023-02-01T12:40:54.086Z,88865.41
2023-02-01T12:43:23.343Z,88869.97
2023-02-01T12:46:03.367Z,88863.22
2023-02-01T12:49:18.082Z,88865.09
2023-02-01T12:51:49.983Z,88857.44
2023-02-01T12:54:26.924Z,88872.09
2023-02-01T12:57:19.787Z,88871.91
2023-02-01T13:00:05.981Z,88882.34
2023-02-01T13:02:45.873Z,88875.84
2023-02-01T13:05:22.018Z,88887.94
2023-02-01T13:08:40.629Z,88879.97
2023-02-01T13:11:20.349Z,88881.44
2023-02-01T13:14:11.641Z,88882.91
2023-02-01T13:16:52.249Z,88896.41
2023-02-01T13:19:28.155Z,88897.16
2023-02-01T13:22:00.177Z,88902.94
2023-02-01T13:24:43.981Z,88901.56
2023-02-01T13:27:18.393Z,88906.41
2023-02-01T13:30:00.198Z,88910.06
2023-02-01T13:32:54.784Z,88915.25
2023-02-01T13:35:45.787Z,88920.91
2023-02-01T13:38:13.109Z,88926.13
2023-02-01T13:40:49.162Z,88922.56
2023-02-01T13:43:18.605Z,88927.81
2023-02-01T13:45:52.704Z,88920.25
2023-02-01T13:48:28.187Z,88928.63
2023-02-01T13:50:58.346Z,88930.94
2023-02-01T13:53:34.791Z,88934.38
2023-02-01T13:56:12.523Z,88943.88
2023-02-01T13:58:42.093Z,88930.72
2023-02-01T14:01:24.350Z,88938.94
2023-02-01T14:03:57.896Z,88940.72
2023-02-01T14:06:27.686Z,88947.78
2023-02-01T14:09:32.530Z,88945.94
2023-02-01T14:12:19.532Z,88948.28
2023-02-01T14:14:49.427Z,88948.06
2023-02-01T14:17:25.333Z,88947.47
2023-02-01T14:20:30.602Z,88949.47
2023-02-01T14:23:05.466Z,88955.84
2023-02-01T14:25:35.853Z,88955.25
2023-02-01T14:28:05.255Z,88961.84
2023-02-01T14:30:33.785Z,88966.34
2023-02-01T14:33:19.603Z,88977.34
2023-02-01T14:36:05.755Z,88970.13
2023-02-01T14:41:34.738Z,88964.50
2023-02-01T14:44:04.854Z,88965.22
2023-02-01T14:47:05.811Z,88977.78
2023-02-01T14:49:53.554Z,88979.25
2023-02-01T14:52:23.689Z,88980.53
2023-02-01T14:55:02.073Z,88968.91
2023-02-01T14:57:30.534Z,88978.31
2023-02-01T15:00:17.781Z,88990.56
2023-02-01T15:02:46.864Z,88981.84
2023-02-01T15:05:29.077Z,89000.66
2023-02-01T15:07:57.164Z,89000.84
2023-02-01T15:10:25.627Z,88993.00
2023-02-01T15:12:52.673Z,88977.31
2023-02-01T15:15:25.132Z,89006.84
2023-02-01T15:18:00.396Z,89020.50
2023-02-01T15:20:31.213Z,89030.44
2023-02-01T15:23:06.477Z,89034.00
2023-02-01T15:25:38.519Z,89052.31
2023-02-01T15:28:06.080Z,89040.66
2023-02-01T15:30:36.187Z,89055.03
2023-02-01T15:33:15.359Z,89059.09
2023-02-01T15:35:51.450Z,89054.38
2023-02-01T15:38:25.610Z,89067.75
2023-02-01T15:41:00.040Z,89073.25
2023-02-01T15:43:28.514Z,89077.63
2023-02-01T15:46:01.766Z,89082.03
2023-02-01T15:48:39.387Z,89084.00
2023-02-01T15:51:07.058Z,89079.19
2023-02-01T15:53:34.138Z,89079.03
2023-02-01T15:56:05.630Z,89090.69
2023-02-01T15:58:32.870Z,89093.47
2023-02-01T16:01:06.163Z,89096.31
2023-02-01T16:03:40.004Z,89088.41
2023-02-01T16:06:29.533Z,89099.66
2023-02-01T16:09:03.956Z,89094.59
2023-02-01T16:11:41.751Z,89094.59
2023-02-01T16:14:08.614Z,89101.28
2023-02-01T16:16:35.522Z,89099.16
2023-02-01T16:19:05.185Z,89100.31
2023-02-01T16:21:32.018Z,89110.34
2023-02-01T16:23:58.904Z,89124.94
2023-02-01T16:26:25.745Z,89127.13
2023-02-01T16:28:52.701Z,89125.34
2023-02-01T16:31:25.903Z,89132.78
2023-02-01T16:33:53.137Z,89142.47
2023-02-01T16:36:20.560Z,89138.44
2023-02-01T16:38:48.080Z,89129.88
2023-02-01T16:41:16.650Z,89126.97
2023-02-01T16:43:43.952Z,89138.78
2023-02-01T16:46:22.634Z,89135.53
2023-02-01T16:48:56.866Z,89147.75
2023-02-01T16:51:26.235Z,89152.19
2023-02-01T16:53:54.881Z,89152.31
2023-02-01T16:56:30.534Z,89147.25
2023-02-01T16:58:58.055Z,89164.44
2023-02-01T17:01:25.260Z,89161.16
2023-02-01T17:03:52.226Z,89153.41
2023-02-01T17:06:22.699Z,89162.38
2023-02-01T17:08:53.757Z,89178.78
2023-02-01T17:11:20.926Z,89170.13
2023-02-01T17:13:48.367Z,89170.75
2023-02-01T17:16:32.561Z,89179.56
2023-02-01T17:19:04.299Z,89178.50
2023-02-01T17:21:39.920Z,89171.53
2023-02-01T17:24:07.145Z,89173.06
2023-02-01T17:26:34.263Z,89170.59
2023-02-01T17:29:01.124Z,89174.63
2023-02-01T17:31:29.359Z,89181.38
2023-02-01T17:33:59.318Z,89174.75
2023-02-01T17:36:26.251Z,89192.66
2023-02-01T17:39:04.775Z,89193.75
2023-02-01T17:41:32.759Z,89188.06
2023-02-01T17:43:59.770Z,89191.09
2023-02-01T17:46:26.691Z,89199.28
2023-02-01T17:48:54.535Z,89209.72
2023-02-01T17:51:25.256Z,89213.47
2023-02-01T17:53:52.151Z,89203.72
2023-02-01T17:56:24.562Z,89210.06
2023-02-01T17:58:51.861Z,89210.19
2023-02-01T18:01:24.439Z,89216.56
2023-02-01T18:03:51.661Z,89220.09
2023-02-01T18:06:23.902Z,89229.19
2023-02-01T18:08:50.840Z,89233.59
2023-02-01T18:11:23.016Z,89234.63
2023-02-01T18:13:52.040Z,89229.41
2023-02-01T18:16:27.335Z,89223.97
2023-02-01T18:18:55.001Z,89213.66
2023-02-01T18:21:23.827Z,89221.69
2023-02-01T18:23:50.774Z,89223.91
2023-02-01T18:26:19.202Z,89222.50
2023-02-01T18:28:46.176Z,89233.63
2023-02-01T18:31:26.161Z,89223.53
2023-02-01T18:33:55.074Z,89227.41
2023-02-01T18:36:22.133Z,89219.63
2023-02-01T18:38:49.209Z,89225.84
2023-02-01T18:41:18.826Z,89220.72
2023-02-01T18:43:45.848Z,89225.78
2023-02-01T18:46:13.894Z,89228.88
2023-02-01T18:48:42.603Z,89223.25
2023-02-01T18:51:18.195Z,89230.22
2023-02-01T18:53:45.044Z,89230.66
2023-02-01T18:56:13.387Z,89227.28
2023-02-01T18:58:41.259Z,89227.66
2023-02-01T19:01:14.584Z,89220.19
2023-02-01T19:03:44.829Z,89217.38
2023-02-01T19:06:15.559Z,89220.22
2023-02-01T19:08:45.905Z,89220.41
2023-02-01T19:11:13.348Z,89221.66
2023-02-01T19:13:41.192Z,89225.81
2023-02-01T19:16:13.636Z,89231.41
2023-02-01T19:18:40.763Z,89234.22
2023-02-01T19:21:14.685Z,89240.34
2023-02-01T19:23:42.834Z,89238.78
2023-02-01T19:26:14.834Z,89226.59
2023-02-01T19:28:42.398Z,89229.63
2023-02-01T19:31:09.675Z,89234.19
2023-02-01T19:33:37.213Z,89235.25
2023-02-01T19:36:06.181Z,89249.88
2023-02-01T19:38:34.278Z,89234.81
2023-02-01T19:41:01.788Z,89243.50
2023-02-01T19:43:29.207Z,89243.06
2023-02-01T19:45:56.174Z,89235.34
2023-02-01T19:48:26.068Z,89242.84
2023-02-01T19:50:52.984Z,89248.69
2023-02-01T19:53:19.899Z,89250.56
2023-02-01T19:55:47.295Z,89243.94
2023-02-01T19:58:14.785Z,89253.19
2023-02-01T20:00:41.418Z,89242.13
2023-02-01T20:03:08.617Z,89262.19
2023-02-01T20:05:35.626Z,89246.94
2023-02-01T20:08:04.073Z,89255.44
2023-02-01T20:10:31.092Z,89252.22
2023-02-01T20:12:58.110Z,89257.03
2023-02-01T20:15:25.431Z,89261.97
2023-02-01T20:17:52.637Z,89242.97
2023-02-01T20:20:19.696Z,89253.25
2023-02-01T20:22:46.518Z,89245.97
2023-02-01T20:25:14.125Z,89241.59
2023-02-01T20:27:41.889Z,89249.91
2023-02-01T20:30:09.819Z,89238.03
2023-02-01T20:32:36.827Z,89248.88
2023-02-01T20:35:03.958Z,89244.41
2023-02-01T20:37:30.945Z,89236.69
2023-02-01T20:39:57.938Z,89248.53
2023-02-01T20:42:25.344Z,89255.91
2023-02-01T20:44:52.349Z,89257.72
2023-02-01T20:47:19.261Z,89253.69
2023-02-01T20:49:46.051Z,89258.84
2023-02-01T20:52:12.959Z,89263.72
2023-02-01T20:54:39.848Z,89272.22
2023-02-01T20:57:06.825Z,89271.72
2023-02-01T20:59:33.842Z,89272.56
2023-02-01T21:02:00.810Z,89273.59
2023-02-01T21:04:28.345Z,89277.97
2023-02-01T21:06:59.592Z,89275.94
2023-02-01T21:09:27.244Z,89277.91
2023-02-01T21:11:54.727Z,89284.69
2023-02-01T21:14:22.008Z,89296.59
2023-02-01T21:16:49.488Z,89295.06
2023-02-01T21:19:19.610Z,89298.09
2023-02-01T21:21:46.603Z,89298.09
2023-02-01T21:24:13.646Z,89307.72
2023-02-01T21:26:40.568Z,89300.91
2023-02-01T21:29:13.600Z,89307.59
2023-02-01T21:31:42.009Z,89306.38
2023-02-01T21:34:09.642Z,89304.34
2023-02-01T21:36:36.552Z,89301.22
2023-02-01T21:39:06.648Z,89307.03
2023-02-01T21:41:36.287Z,89310.19
2023-02-01T21:44:03.222Z,89313.94
2023-02-01T21:46:30.238Z,89304.25
2023-02-01T21:49:04.025Z,89316.22
2023-02-01T21:51:32.680Z,89312.47
2023-02-01T21:54:01.786Z,89309.41
2023-02-01T21:56:29.185Z,89309.34
2023-02-01T21:58:56.151Z,89318.66
2023-02-01T22:01:23.877Z,89306.19
2023-02-01T22:03:50.804Z,89308.94
2023-02-01T22:06:29.883Z,89299.56
2023-02-01T22:08:57.424Z,89304.53
2023-02-01T22:11:27.940Z,89302.47
2023-02-01T22:13:55.083Z,89297.03
2023-02-01T22:16:22.336Z,89296.19
2023-02-01T22:18:50.709Z,89296.50
2023-02-01T22:21:19.037Z,89289.09
2023-02-01T22:23:51.520Z,89299.81
2023-02-01T22:26:18.524Z,89287.94
2023-02-01T22:28:48.028Z,89279.41
2023-02-01T22:31:15.026Z,89282.88
2023-02-01T22:33:42.136Z,89276.75
2023-02-01T22:36:09.395Z,89282.88
2023-02-01T22:38:36.391Z,89277.69
2023-02-01T22:41:06.439Z,89274.84
2023-02-01T22:43:33.974Z,89280.84
2023-02-01T22:46:02.506Z,89283.00
2023-02-01T22:48:30.850Z,89289.56
2023-02-01T22:51:01.834Z,89282.53
2023-02-01T22:53:30.394Z,89276.41
2023-02-01T22:56:07.744Z,89285.97
2023-02-01T22:58:34.959Z,89287.75
2023-02-01T23:01:09.986Z,89284.38
2023-02-01T23:03:37.869Z,89287.31
2023-02-01T23:06:06.586Z,89299.88
2023-02-01T23:08:34.783Z,89290.56
2023-02-01T23:11:04.567Z,89294.41
2023-02-01T23:13:32.899Z,89289.56
2023-02-01T23:16:04.039Z,89283.44
2023-02-01T23:18:30.956Z,89284.47
2023-02-01T23:21:03.096Z,89279.91
2023-02-01T23:23:30.037Z,89270.28
2023-02-01T23:25:57.114Z,89278.34
2023-02-01T23:28:24.015Z,89280.31
2023-02-01T23:30:51.047Z,89289.00
2023-02-01T23:33:18.141Z,89283.22
2023-02-01T23:35:55.211Z,89283.19
2023-02-01T23:38:22.143Z,89288.41
2023-02-01T23:40:51.428Z,89305.78
2023-02-01T23:43:18.620Z,89298.94
2023-02-01T23:45:45.729Z,89301.13
2023-02-01T23:48:12.596Z,89294.34
2023-02-01T23:50:39.639Z,89294.56
2023-02-01T23:53:06.522Z,89300.91
2023-02-01T23:55:33.454Z,89312.94
2023-02-01T23:58:00.460Z,89302.53
